sensor_id;sensor_type;location;lat;lon;timestamp;P1;durP1;ratioP1;P2;durP2;ratioP2
70102;SDS011;57470;50.034;15.256;2023-08-06T00:00:38;4.38;;;1.10;;
70102;SDS011;57470;50.034;15.256;2023-08-06T00:03:03;4.63;;;1.60;;
70102;SDS011;57470;50.034;15.256;2023-08-06T00:05:29;4.00;;;1.30;;
70102;SDS011;57470;50.034;15.256;2023-08-06T00:07:54;4.60;;;1.00;;
70102;SDS011;57470;50.034;15.256;2023-08-06T00:10:20;4.63;;;1.60;;
70102;SDS011;57470;50.034;15.256;2023-08-06T00:12:45;4.30;;;1.67;;
70102;SDS011;57470;50.034;15.256;2023-08-06T00:15:10;4.00;;;1.37;;
70102;SDS011;57470;50.034;15.256;2023-08-06T00:17:36;3.65;;;1.23;;
70102;SDS011;57470;50.034;15.256;2023-08-06T00:20:02;4.50;;;2.03;;
70102;SDS011;57470;50.034;15.256;2023-08-06T00:22:31;4.15;;;1.27;;
70102;SDS011;57470;50.034;15.256;2023-08-06T00:24:57;4.73;;;1.20;;
70102;SDS011;57470;50.034;15.256;2023-08-06T00:27:23;3.88;;;0.73;;
70102;SDS011;57470;50.034;15.256;2023-08-06T00:29:49;3.53;;;0.97;;
70102;SDS011;57470;50.034;15.256;2023-08-06T00:32:14;4.07;;;1.20;;
70102;SDS011;57470;50.034;15.256;2023-08-06T00:34:40;4.07;;;1.37;;
70102;SDS011;57470;50.034;15.256;2023-08-06T00:37:05;4.40;;;1.13;;
70102;SDS011;57470;50.034;15.256;2023-08-06T00:39:31;4.20;;;1.20;;
70102;SDS011;57470;50.034;15.256;2023-08-06T00:41:56;4.18;;;1.20;;
70102;SDS011;57470;50.034;15.256;2023-08-06T00:44:23;4.15;;;1.50;;
70102;SDS011;57470;50.034;15.256;2023-08-06T00:46:48;3.83;;;1.07;;
70102;SDS011;57470;50.034;15.256;2023-08-06T00:49:14;4.25;;;1.27;;
70102;SDS011;57470;50.034;15.256;2023-08-06T00:51:40;3.60;;;1.13;;
70102;SDS011;57470;50.034;15.256;2023-08-06T00:54:05;3.10;;;1.00;;
70102;SDS011;57470;50.034;15.256;2023-08-06T00:56:31;3.63;;;1.13;;
70102;SDS011;57470;50.034;15.256;2023-08-06T00:59:00;4.53;;;1.70;;
70102;SDS011;57470;50.034;15.256;2023-08-06T01:01:26;3.67;;;0.93;;
70102;SDS011;57470;50.034;15.256;2023-08-06T01:03:52;3.73;;;1.20;;
70102;SDS011;57470;50.034;15.256;2023-08-06T01:06:19;3.85;;;1.38;;
70102;SDS011;57470;50.034;15.256;2023-08-06T01:08:58;3.77;;;1.53;;
70102;SDS011;57470;50.034;15.256;2023-08-06T01:14:12;7.78;;;1.05;;
70102;SDS011;57470;50.034;15.256;2023-08-06T01:16:53;3.78;;;1.35;;
70102;SDS011;57470;50.034;15.256;2023-08-06T01:19:20;4.57;;;1.15;;
70102;SDS011;57470;50.034;15.256;2023-08-06T01:21:46;4.47;;;1.20;;
70102;SDS011;57470;50.034;15.256;2023-08-06T01:24:12;3.97;;;1.23;;
70102;SDS011;57470;50.034;15.256;2023-08-06T01:29:08;3.23;;;0.77;;
70102;SDS011;57470;50.034;15.256;2023-08-06T01:31:39;3.05;;;0.88;;
70102;SDS011;57470;50.034;15.256;2023-08-06T01:34:07;3.30;;;0.85;;
70102;SDS011;57470;50.034;15.256;2023-08-06T01:36:38;3.28;;;0.75;;
70102;SDS011;57470;50.034;15.256;2023-08-06T01:39:05;3.67;;;1.02;;
70102;SDS011;57470;50.034;15.256;2023-08-06T01:41:30;3.37;;;0.70;;
70102;SDS011;57470;50.034;15.256;2023-08-06T01:43:55;3.90;;;1.07;;
70102;SDS011;57470;50.034;15.256;2023-08-06T01:46:21;3.60;;;0.87;;
70102;SDS011;57470;50.034;15.256;2023-08-06T01:48:46;3.73;;;1.40;;
70102;SDS011;57470;50.034;15.256;2023-08-06T01:51:11;3.80;;;0.82;;
70102;SDS011;57470;50.034;15.256;2023-08-06T01:53:37;3.70;;;0.90;;
70102;SDS011;57470;50.034;15.256;2023-08-06T01:56:02;3.50;;;1.10;;
70102;SDS011;57470;50.034;15.256;2023-08-06T01:58:28;3.20;;;0.80;;
70102;SDS011;57470;50.034;15.256;2023-08-06T02:00:53;3.70;;;1.13;;
70102;SDS011;57470;50.034;15.256;2023-08-06T02:03:19;3.17;;;0.77;;
70102;SDS011;57470;50.034;15.256;2023-08-06T02:05:44;3.57;;;1.10;;
70102;SDS011;57470;50.034;15.256;2023-08-06T02:08:10;6.35;;;0.90;;
70102;SDS011;57470;50.034;15.256;2023-08-06T02:10:36;3.53;;;0.73;;
70102;SDS011;57470;50.034;15.256;2023-08-06T02:13:01;4.57;;;1.37;;
70102;SDS011;57470;50.034;15.256;2023-08-06T02:15:26;3.80;;;1.15;;
70102;SDS011;57470;50.034;15.256;2023-08-06T02:17:52;3.50;;;1.17;;
70102;SDS011;57470;50.034;15.256;2023-08-06T02:20:17;3.03;;;0.70;;
70102;SDS011;57470;50.034;15.256;2023-08-06T02:22:43;3.73;;;1.00;;
70102;SDS011;57470;50.034;15.256;2023-08-06T02:25:08;3.17;;;0.90;;
70102;SDS011;57470;50.034;15.256;2023-08-06T02:27:34;3.47;;;1.17;;
70102;SDS011;57470;50.034;15.256;2023-08-06T02:29:59;3.63;;;1.00;;
70102;SDS011;57470;50.034;15.256;2023-08-06T02:32:24;3.77;;;1.10;;
70102;SDS011;57470;50.034;15.256;2023-08-06T02:34:50;5.53;;;1.25;;
70102;SDS011;57470;50.034;15.256;2023-08-06T02:37:16;3.57;;;0.87;;
70102;SDS011;57470;50.034;15.256;2023-08-06T02:39:41;3.03;;;0.87;;
70102;SDS011;57470;50.034;15.256;2023-08-06T02:42:07;3.87;;;1.10;;
70102;SDS011;57470;50.034;15.256;2023-08-06T02:44:32;3.95;;;1.13;;
70102;SDS011;57470;50.034;15.256;2023-08-06T02:46:58;3.38;;;0.73;;
70102;SDS011;57470;50.034;15.256;2023-08-06T02:49:24;3.27;;;1.03;;
70102;SDS011;57470;50.034;15.256;2023-08-06T02:51:50;3.60;;;0.77;;
70102;SDS011;57470;50.034;15.256;2023-08-06T02:54:15;3.67;;;1.00;;
70102;SDS011;57470;50.034;15.256;2023-08-06T02:56:43;4.00;;;1.60;;
70102;SDS011;57470;50.034;15.256;2023-08-06T02:59:10;5.43;;;0.98;;
70102;SDS011;57470;50.034;15.256;2023-08-06T03:01:35;3.20;;;0.93;;
70102;SDS011;57470;50.034;15.256;2023-08-06T03:04:01;3.77;;;1.17;;
70102;SDS011;57470;50.034;15.256;2023-08-06T03:06:26;3.63;;;1.10;;
70102;SDS011;57470;50.034;15.256;2023-08-06T03:08:52;3.15;;;0.82;;
70102;SDS011;57470;50.034;15.256;2023-08-06T03:11:17;5.63;;;1.10;;
70102;SDS011;57470;50.034;15.256;2023-08-06T03:13:42;4.00;;;1.10;;
70102;SDS011;57470;50.034;15.256;2023-08-06T03:16:08;4.17;;;0.90;;
70102;SDS011;57470;50.034;15.256;2023-08-06T03:18:33;3.77;;;1.17;;
70102;SDS011;57470;50.034;15.256;2023-08-06T03:20:59;4.83;;;0.70;;
70102;SDS011;57470;50.034;15.256;2023-08-06T03:23:24;3.53;;;0.70;;
70102;SDS011;57470;50.034;15.256;2023-08-06T03:25:49;3.67;;;0.80;;
70102;SDS011;57470;50.034;15.256;2023-08-06T03:28:15;4.63;;;0.87;;
70102;SDS011;57470;50.034;15.256;2023-08-06T03:30:40;9.33;;;1.23;;
70102;SDS011;57470;50.034;15.256;2023-08-06T03:33:06;2.90;;;0.85;;
70102;SDS011;57470;50.034;15.256;2023-08-06T03:35:31;3.70;;;1.17;;
70102;SDS011;57470;50.034;15.256;2023-08-06T03:37:57;3.20;;;0.77;;
70102;SDS011;57470;50.034;15.256;2023-08-06T03:40:22;3.63;;;0.73;;
70102;SDS011;57470;50.034;15.256;2023-08-06T03:42:47;4.07;;;1.20;;
70102;SDS011;57470;50.034;15.256;2023-08-06T03:45:13;3.33;;;1.00;;
70102;SDS011;57470;50.034;15.256;2023-08-06T03:47:38;3.70;;;1.07;;
70102;SDS011;57470;50.034;15.256;2023-08-06T03:50:04;3.33;;;1.03;;
70102;SDS011;57470;50.034;15.256;2023-08-06T03:52:29;5.20;;;0.83;;
70102;SDS011;57470;50.034;15.256;2023-08-06T03:54:55;10.63;;;1.53;;
70102;SDS011;57470;50.034;15.256;2023-08-06T03:57:20;3.47;;;0.80;;
70102;SDS011;57470;50.034;15.256;2023-08-06T03:59:45;3.27;;;0.93;;
70102;SDS011;57470;50.034;15.256;2023-08-06T04:02:11;3.87;;;1.13;;
70102;SDS011;57470;50.034;15.256;2023-08-06T04:04:36;3.43;;;0.80;;
70102;SDS011;57470;50.034;15.256;2023-08-06T04:07:02;3.45;;;0.80;;
70102;SDS011;57470;50.034;15.256;2023-08-06T04:09:28;3.00;;;0.60;;
70102;SDS011;57470;50.034;15.256;2023-08-06T04:11:54;3.67;;;1.13;;
70102;SDS011;57470;50.034;15.256;2023-08-06T04:14:19;3.45;;;0.90;;
70102;SDS011;57470;50.034;15.256;2023-08-06T04:16:44;4.43;;;0.87;;
70102;SDS011;57470;50.034;15.256;2023-08-06T04:19:10;2.30;;;0.60;;
70102;SDS011;57470;50.034;15.256;2023-08-06T04:21:35;3.00;;;0.80;;
70102;SDS011;57470;50.034;15.256;2023-08-06T04:24:01;3.30;;;0.70;;
70102;SDS011;57470;50.034;15.256;2023-08-06T04:26:26;4.10;;;0.70;;
70102;SDS011;57470;50.034;15.256;2023-08-06T04:28:52;3.07;;;0.73;;
70102;SDS011;57470;50.034;15.256;2023-08-06T04:31:17;2.60;;;0.80;;
70102;SDS011;57470;50.034;15.256;2023-08-06T04:33:43;3.07;;;0.80;;
70102;SDS011;57470;50.034;15.256;2023-08-06T04:36:08;3.17;;;0.82;;
70102;SDS011;57470;50.034;15.256;2023-08-06T04:38:33;3.20;;;0.50;;
70102;SDS011;57470;50.034;15.256;2023-08-06T04:40:59;2.70;;;0.70;;
70102;SDS011;57470;50.034;15.256;2023-08-06T04:43:24;3.03;;;0.80;;
70102;SDS011;57470;50.034;15.256;2023-08-06T04:45:50;3.97;;;1.23;;
70102;SDS011;57470;50.034;15.256;2023-08-06T04:48:16;2.63;;;0.60;;
70102;SDS011;57470;50.034;15.256;2023-08-06T04:50:45;3.35;;;0.52;;
70102;SDS011;57470;50.034;15.256;2023-08-06T04:53:13;3.10;;;1.00;;
70102;SDS011;57470;50.034;15.256;2023-08-06T04:55:39;3.33;;;0.80;;
70102;SDS011;57470;50.034;15.256;2023-08-06T04:58:04;3.20;;;0.60;;
70102;SDS011;57470;50.034;15.256;2023-08-06T05:00:30;6.90;;;0.63;;
70102;SDS011;57470;50.034;15.256;2023-08-06T05:02:56;2.97;;;0.80;;
70102;SDS011;57470;50.034;15.256;2023-08-06T05:05:22;3.03;;;0.90;;
70102;SDS011;57470;50.034;15.256;2023-08-06T05:07:48;2.72;;;0.65;;
70102;SDS011;57470;50.034;15.256;2023-08-06T05:10:15;3.00;;;0.70;;
70102;SDS011;57470;50.034;15.256;2023-08-06T05:12:40;3.07;;;0.70;;
70102;SDS011;57470;50.034;15.256;2023-08-06T05:15:06;2.78;;;0.60;;
70102;SDS011;57470;50.034;15.256;2023-08-06T05:17:32;2.90;;;0.70;;
70102;SDS011;57470;50.034;15.256;2023-08-06T05:19:57;3.23;;;0.80;;
70102;SDS011;57470;50.034;15.256;2023-08-06T05:22:22;2.55;;;0.60;;
70102;SDS011;57470;50.034;15.256;2023-08-06T05:24:48;4.47;;;1.03;;
70102;SDS011;57470;50.034;15.256;2023-08-06T05:27:13;3.17;;;0.77;;
70102;SDS011;57470;50.034;15.256;2023-08-06T05:29:39;3.70;;;0.80;;
70102;SDS011;57470;50.034;15.256;2023-08-06T05:32:04;3.43;;;0.90;;
70102;SDS011;57470;50.034;15.256;2023-08-06T05:34:30;4.83;;;0.93;;
70102;SDS011;57470;50.034;15.256;2023-08-06T05:36:55;3.47;;;1.07;;
70102;SDS011;57470;50.034;15.256;2023-08-06T05:39:21;3.05;;;0.80;;
70102;SDS011;57470;50.034;15.256;2023-08-06T05:41:46;3.60;;;0.77;;
70102;SDS011;57470;50.034;15.256;2023-08-06T05:44:11;3.27;;;0.80;;
70102;SDS011;57470;50.034;15.256;2023-08-06T05:46:37;3.13;;;1.00;;
70102;SDS011;57470;50.034;15.256;2023-08-06T05:49:02;3.33;;;0.93;;
70102;SDS011;57470;50.034;15.256;2023-08-06T05:51:28;3.95;;;1.42;;
70102;SDS011;57470;50.034;15.256;2023-08-06T05:53:54;3.10;;;0.70;;
70102;SDS011;57470;50.034;15.256;2023-08-06T05:56:19;4.70;;;1.00;;
70102;SDS011;57470;50.034;15.256;2023-08-06T05:58:44;3.13;;;0.80;;
70102;SDS011;57470;50.034;15.256;2023-08-06T06:01:11;2.78;;;0.73;;
70102;SDS011;57470;50.034;15.256;2023-08-06T06:03:37;3.37;;;1.00;;
70102;SDS011;57470;50.034;15.256;2023-08-06T06:06:02;3.80;;;0.90;;
70102;SDS011;57470;50.034;15.256;2023-08-06T06:08:28;2.45;;;0.55;;
70102;SDS011;57470;50.034;15.256;2023-08-06T06:10:53;3.57;;;1.10;;
70102;SDS011;57470;50.034;15.256;2023-08-06T06:13:19;3.78;;;0.80;;
70102;SDS011;57470;50.034;15.256;2023-08-06T06:15:46;3.10;;;1.00;;
70102;SDS011;57470;50.034;15.256;2023-08-06T06:18:12;3.60;;;0.98;;
70102;SDS011;57470;50.034;15.256;2023-08-06T06:20:38;2.63;;;0.83;;
70102;SDS011;57470;50.034;15.256;2023-08-06T06:23:03;4.07;;;1.30;;
70102;SDS011;57470;50.034;15.256;2023-08-06T06:25:28;3.03;;;0.70;;
70102;SDS011;57470;50.034;15.256;2023-08-06T06:27:54;2.80;;;0.73;;
70102;SDS011;57470;50.034;15.256;2023-08-06T06:30:19;3.67;;;0.87;;
70102;SDS011;57470;50.034;15.256;2023-08-06T06:32:44;3.57;;;0.90;;
70102;SDS011;57470;50.034;15.256;2023-08-06T06:35:10;3.77;;;0.73;;
70102;SDS011;57470;50.034;15.256;2023-08-06T06:37:35;3.57;;;0.87;;
70102;SDS011;57470;50.034;15.256;2023-08-06T06:40:01;3.75;;;0.80;;
70102;SDS011;57470;50.034;15.256;2023-08-06T06:42:26;2.67;;;0.60;;
70102;SDS011;57470;50.034;15.256;2023-08-06T06:44:51;4.33;;;1.13;;
70102;SDS011;57470;50.034;15.256;2023-08-06T06:47:17;3.60;;;1.00;;
70102;SDS011;57470;50.034;15.256;2023-08-06T06:49:42;2.83;;;0.83;;
70102;SDS011;57470;50.034;15.256;2023-08-06T06:52:07;3.00;;;0.70;;
70102;SDS011;57470;50.034;15.256;2023-08-06T06:54:33;3.53;;;1.23;;
70102;SDS011;57470;50.034;15.256;2023-08-06T06:56:58;3.67;;;1.00;;
70102;SDS011;57470;50.034;15.256;2023-08-06T06:59:24;3.93;;;1.30;;
70102;SDS011;57470;50.034;15.256;2023-08-06T07:01:49;3.83;;;1.20;;
70102;SDS011;57470;50.034;15.256;2023-08-06T07:04:14;3.67;;;1.10;;
70102;SDS011;57470;50.034;15.256;2023-08-06T07:06:40;3.23;;;0.87;;
70102;SDS011;57470;50.034;15.256;2023-08-06T07:09:05;3.00;;;0.77;;
70102;SDS011;57470;50.034;15.256;2023-08-06T07:11:31;3.63;;;1.00;;
70102;SDS011;57470;50.034;15.256;2023-08-06T07:13:56;4.10;;;1.30;;
70102;SDS011;57470;50.034;15.256;2023-08-06T07:16:25;4.00;;;1.00;;
70102;SDS011;57470;50.034;15.256;2023-08-06T07:18:52;4.30;;;1.27;;
70102;SDS011;57470;50.034;15.256;2023-08-06T07:21:18;3.60;;;1.10;;
70102;SDS011;57470;50.034;15.256;2023-08-06T07:23:44;3.50;;;0.90;;
70102;SDS011;57470;50.034;15.256;2023-08-06T07:26:10;5.13;;;1.55;;
70102;SDS011;57470;50.034;15.256;2023-08-06T07:28:35;3.30;;;0.70;;
70102;SDS011;57470;50.034;15.256;2023-08-06T07:31:02;4.30;;;1.13;;
70102;SDS011;57470;50.034;15.256;2023-08-06T07:33:28;3.53;;;1.27;;
70102;SDS011;57470;50.034;15.256;2023-08-06T07:35:53;4.77;;;1.47;;
70102;SDS011;57470;50.034;15.256;2023-08-06T07:38:19;4.07;;;1.20;;
70102;SDS011;57470;50.034;15.256;2023-08-06T07:40:44;4.70;;;1.30;;
70102;SDS011;57470;50.034;15.256;2023-08-06T07:43:10;5.03;;;1.53;;
70102;SDS011;57470;50.034;15.256;2023-08-06T07:45:35;6.32;;;1.70;;
70102;SDS011;57470;50.034;15.256;2023-08-06T07:48:02;5.40;;;0.70;;
70102;SDS011;57470;50.034;15.256;2023-08-06T07:50:27;4.88;;;1.48;;
70102;SDS011;57470;50.034;15.256;2023-08-06T07:52:53;4.40;;;1.07;;
70102;SDS011;57470;50.034;15.256;2023-08-06T07:55:18;4.57;;;1.38;;
70102;SDS011;57470;50.034;15.256;2023-08-06T07:57:44;3.67;;;1.23;;
70102;SDS011;57470;50.034;15.256;2023-08-06T08:00:09;4.27;;;1.33;;
70102;SDS011;57470;50.034;15.256;2023-08-06T08:02:35;5.85;;;1.50;;
70102;SDS011;57470;50.034;15.256;2023-08-06T08:05:00;7.27;;;1.97;;
70102;SDS011;57470;50.034;15.256;2023-08-06T08:07:26;4.27;;;1.27;;
70102;SDS011;57470;50.034;15.256;2023-08-06T08:09:54;4.55;;;1.25;;
70102;SDS011;57470;50.034;15.256;2023-08-06T08:12:19;3.43;;;0.93;;
70102;SDS011;57470;50.034;15.256;2023-08-06T08:14:45;2.70;;;0.85;;
70102;SDS011;57470;50.034;15.256;2023-08-06T08:17:10;5.03;;;1.73;;
70102;SDS011;57470;50.034;15.256;2023-08-06T08:19:37;3.60;;;1.08;;
70102;SDS011;57470;50.034;15.256;2023-08-06T08:22:02;5.10;;;1.80;;
70102;SDS011;57470;50.034;15.256;2023-08-06T08:24:28;3.78;;;1.17;;
70102;SDS011;57470;50.034;15.256;2023-08-06T08:26:55;4.03;;;1.30;;
70102;SDS011;57470;50.034;15.256;2023-08-06T08:29:21;4.27;;;1.30;;
70102;SDS011;57470;50.034;15.256;2023-08-06T08:31:47;4.90;;;1.70;;
70102;SDS011;57470;50.034;15.256;2023-08-06T08:34:15;4.53;;;1.55;;
70102;SDS011;57470;50.034;15.256;2023-08-06T08:36:41;4.40;;;1.40;;
70102;SDS011;57470;50.034;15.256;2023-08-06T08:39:06;4.67;;;1.03;;
70102;SDS011;57470;50.034;15.256;2023-08-06T08:41:31;4.63;;;0.87;;
70102;SDS011;57470;50.034;15.256;2023-08-06T08:43:59;4.03;;;1.05;;
70102;SDS011;57470;50.034;15.256;2023-08-06T08:46:31;4.78;;;1.30;;
70102;SDS011;57470;50.034;15.256;2023-08-06T08:48:58;4.43;;;1.50;;
70102;SDS011;57470;50.034;15.256;2023-08-06T08:51:25;4.07;;;1.55;;
70102;SDS011;57470;50.034;15.256;2023-08-06T08:53:52;4.85;;;1.52;;
70102;SDS011;57470;50.034;15.256;2023-08-06T08:56:21;4.00;;;1.00;;
70102;SDS011;57470;50.034;15.256;2023-08-06T08:58:47;4.57;;;1.73;;
70102;SDS011;57470;50.034;15.256;2023-08-06T09:01:13;4.25;;;1.00;;
70102;SDS011;57470;50.034;15.256;2023-08-06T09:03:40;3.42;;;0.90;;
70102;SDS011;57470;50.034;15.256;2023-08-06T09:06:05;3.70;;;1.17;;
70102;SDS011;57470;50.034;15.256;2023-08-06T09:08:35;3.83;;;1.13;;
70102;SDS011;57470;50.034;15.256;2023-08-06T09:11:04;3.63;;;0.90;;
70102;SDS011;57470;50.034;15.256;2023-08-06T09:13:31;4.37;;;1.10;;
70102;SDS011;57470;50.034;15.256;2023-08-06T09:15:57;3.53;;;1.10;;
70102;SDS011;57470;50.034;15.256;2023-08-06T09:18:26;5.43;;;1.60;;
70102;SDS011;57470;50.034;15.256;2023-08-06T09:20:52;5.07;;;1.10;;
70102;SDS011;57470;50.034;15.256;2023-08-06T09:23:18;3.83;;;1.17;;
70102;SDS011;57470;50.034;15.256;2023-08-06T09:25:45;4.25;;;1.13;;
70102;SDS011;57470;50.034;15.256;2023-08-06T09:28:10;4.20;;;1.00;;
70102;SDS011;57470;50.034;15.256;2023-08-06T09:30:36;3.70;;;1.10;;
70102;SDS011;57470;50.034;15.256;2023-08-06T09:33:03;4.03;;;0.98;;
70102;SDS011;57470;50.034;15.256;2023-08-06T09:35:33;3.92;;;1.30;;
70102;SDS011;57470;50.034;15.256;2023-08-06T09:38:05;3.27;;;0.67;;
70102;SDS011;57470;50.034;15.256;2023-08-06T09:40:34;4.53;;;1.75;;
70102;SDS011;57470;50.034;15.256;2023-08-06T09:43:00;4.17;;;1.03;;
70102;SDS011;57470;50.034;15.256;2023-08-06T09:45:30;4.50;;;1.33;;
70102;SDS011;57470;50.034;15.256;2023-08-06T09:48:05;3.30;;;0.80;;
70102;SDS011;57470;50.034;15.256;2023-08-06T09:50:33;4.85;;;1.30;;
70102;SDS011;57470;50.034;15.256;2023-08-06T09:53:03;4.40;;;1.10;;
70102;SDS011;57470;50.034;15.256;2023-08-06T09:55:30;3.80;;;1.00;;
70102;SDS011;57470;50.034;15.256;2023-08-06T09:57:56;3.20;;;0.85;;
70102;SDS011;57470;50.034;15.256;2023-08-06T10:00:23;4.07;;;1.23;;
70102;SDS011;57470;50.034;15.256;2023-08-06T10:02:49;4.55;;;1.27;;
70102;SDS011;57470;50.034;15.256;2023-08-06T10:05:16;6.57;;;1.90;;
70102;SDS011;57470;50.034;15.256;2023-08-06T10:07:42;4.53;;;1.07;;
70102;SDS011;57470;50.034;15.256;2023-08-06T10:10:09;5.43;;;1.50;;
70102;SDS011;57470;50.034;15.256;2023-08-06T10:12:40;5.30;;;1.47;;
70102;SDS011;57470;50.034;15.256;2023-08-06T10:15:11;4.60;;;1.38;;
70102;SDS011;57470;50.034;15.256;2023-08-06T10:17:40;4.05;;;1.38;;
70102;SDS011;57470;50.034;15.256;2023-08-06T10:20:07;5.57;;;1.90;;
70102;SDS011;57470;50.034;15.256;2023-08-06T10:22:33;5.65;;;1.83;;
70102;SDS011;57470;50.034;15.256;2023-08-06T10:25:00;5.27;;;1.87;;
70102;SDS011;57470;50.034;15.256;2023-08-06T10:29:56;4.13;;;1.33;;
70102;SDS011;57470;50.034;15.256;2023-08-06T10:32:53;4.47;;;1.23;;
70102;SDS011;57470;50.034;15.256;2023-08-06T10:35:28;4.33;;;1.47;;
70102;SDS011;57470;50.034;15.256;2023-08-06T10:37:58;4.75;;;1.90;;
70102;SDS011;57470;50.034;15.256;2023-08-06T10:40:24;5.07;;;1.73;;
70102;SDS011;57470;50.034;15.256;2023-08-06T10:42:51;5.05;;;1.90;;
70102;SDS011;57470;50.034;15.256;2023-08-06T10:45:17;4.67;;;1.50;;
70102;SDS011;57470;50.034;15.256;2023-08-06T10:47:43;4.93;;;1.58;;
70102;SDS011;57470;50.034;15.256;2023-08-06T10:50:16;6.20;;;2.63;;
70102;SDS011;57470;50.034;15.256;2023-08-06T10:52:45;5.47;;;1.80;;
70102;SDS011;57470;50.034;15.256;2023-08-06T10:55:12;7.03;;;2.25;;
70102;SDS011;57470;50.034;15.256;2023-08-06T10:57:37;5.72;;;2.13;;
70102;SDS011;57470;50.034;15.256;2023-08-06T11:00:06;5.20;;;2.20;;
70102;SDS011;57470;50.034;15.256;2023-08-06T11:02:36;4.97;;;1.85;;
70102;SDS011;57470;50.034;15.256;2023-08-06T11:05:09;7.43;;;2.70;;
70102;SDS011;57470;50.034;15.256;2023-08-06T11:07:35;5.07;;;1.95;;
70102;SDS011;57470;50.034;15.256;2023-08-06T11:10:05;5.50;;;2.33;;
70102;SDS011;57470;50.034;15.256;2023-08-06T11:12:32;5.70;;;2.08;;
70102;SDS011;57470;50.034;15.256;2023-08-06T11:14:58;4.97;;;1.88;;
70102;SDS011;57470;50.034;15.256;2023-08-06T11:17:24;4.68;;;1.67;;
70102;SDS011;57470;50.034;15.256;2023-08-06T11:19:50;5.37;;;1.87;;
70102;SDS011;57470;50.034;15.256;2023-08-06T11:22:17;5.13;;;1.92;;
70102;SDS011;57470;50.034;15.256;2023-08-06T11:24:43;6.15;;;2.33;;
70102;SDS011;57470;50.034;15.256;2023-08-06T11:27:15;6.60;;;2.57;;
70102;SDS011;57470;50.034;15.256;2023-08-06T11:29:42;5.88;;;1.90;;
70102;SDS011;57470;50.034;15.256;2023-08-06T11:32:08;6.60;;;1.92;;
70102;SDS011;57470;50.034;15.256;2023-08-06T11:34:34;4.90;;;1.98;;
70102;SDS011;57470;50.034;15.256;2023-08-06T11:37:00;5.43;;;2.22;;
70102;SDS011;57470;50.034;15.256;2023-08-06T11:39:32;5.23;;;2.07;;
70102;SDS011;57470;50.034;15.256;2023-08-06T11:42:04;4.70;;;1.77;;
70102;SDS011;57470;50.034;15.256;2023-08-06T11:44:31;5.80;;;2.28;;
70102;SDS011;57470;50.034;15.256;2023-08-06T11:46:58;5.82;;;2.35;;
70102;SDS011;57470;50.034;15.256;2023-08-06T11:49:39;5.05;;;2.22;;
70102;SDS011;57470;50.034;15.256;2023-08-06T11:52:18;5.87;;;2.67;;
70102;SDS011;57470;50.034;15.256;2023-08-06T11:54:46;6.95;;;1.88;;
70102;SDS011;57470;50.034;15.256;2023-08-06T11:57:33;5.82;;;2.45;;
70102;SDS011;57470;50.034;15.256;2023-08-06T12:00:12;4.90;;;1.80;;
70102;SDS011;57470;50.034;15.256;2023-08-06T12:02:41;6.55;;;2.38;;
70102;SDS011;57470;50.034;15.256;2023-08-06T12:05:14;6.23;;;2.30;;
70102;SDS011;57470;50.034;15.256;2023-08-06T12:07:57;6.38;;;2.92;;
70102;SDS011;57470;50.034;15.256;2023-08-06T12:10:24;5.50;;;2.03;;
70102;SDS011;57470;50.034;15.256;2023-08-06T12:12:50;5.50;;;2.40;;
70102;SDS011;57470;50.034;15.256;2023-08-06T12:15:16;5.00;;;2.10;;
70102;SDS011;57470;50.034;15.256;2023-08-06T12:17:42;4.50;;;1.70;;
70102;SDS011;57470;50.034;15.256;2023-08-06T12:20:08;5.33;;;1.97;;
70102;SDS011;57470;50.034;15.256;2023-08-06T12:22:34;5.75;;;2.22;;
70102;SDS011;57470;50.034;15.256;2023-08-06T12:25:01;5.82;;;1.95;;
70102;SDS011;57470;50.034;15.256;2023-08-06T12:27:34;5.35;;;1.92;;
70102;SDS011;57470;50.034;15.256;2023-08-06T12:30:03;5.30;;;2.40;;
70102;SDS011;57470;50.034;15.256;2023-08-06T12:32:30;5.13;;;2.07;;
70102;SDS011;57470;50.034;15.256;2023-08-06T12:34:55;5.03;;;2.08;;
70102;SDS011;57470;50.034;15.256;2023-08-06T12:37:20;5.80;;;2.33;;
70102;SDS011;57470;50.034;15.256;2023-08-06T12:39:46;5.17;;;1.90;;
70102;SDS011;57470;50.034;15.256;2023-08-06T12:42:12;5.15;;;1.98;;
70102;SDS011;57470;50.034;15.256;2023-08-06T12:44:37;5.07;;;1.87;;
70102;SDS011;57470;50.034;15.256;2023-08-06T12:47:02;5.20;;;2.23;;
70102;SDS011;57470;50.034;15.256;2023-08-06T12:49:28;4.93;;;1.90;;
70102;SDS011;57470;50.034;15.256;2023-08-06T12:51:54;4.43;;;1.88;;
70102;SDS011;57470;50.034;15.256;2023-08-06T12:54:22;5.40;;;2.08;;
70102;SDS011;57470;50.034;15.256;2023-08-06T12:56:48;7.25;;;1.92;;
70102;SDS011;57470;50.034;15.256;2023-08-06T12:59:15;4.72;;;1.65;;
70102;SDS011;57470;50.034;15.256;2023-08-06T13:01:42;5.63;;;2.00;;
70102;SDS011;57470;50.034;15.256;2023-08-06T13:04:08;4.80;;;1.73;;
70102;SDS011;57470;50.034;15.256;2023-08-06T13:06:33;4.30;;;1.60;;
70102;SDS011;57470;50.034;15.256;2023-08-06T13:09:08;4.18;;;1.33;;
70102;SDS011;57470;50.034;15.256;2023-08-06T13:11:35;4.40;;;1.73;;
70102;SDS011;57470;50.034;15.256;2023-08-06T13:14:10;3.25;;;0.90;;
70102;SDS011;57470;50.034;15.256;2023-08-06T13:16:37;5.28;;;1.77;;
70102;SDS011;57470;50.034;15.256;2023-08-06T13:19:04;4.57;;;1.70;;
70102;SDS011;57470;50.034;15.256;2023-08-06T13:24:11;4.33;;;1.40;;
70102;SDS011;57470;50.034;15.256;2023-08-06T13:26:36;4.40;;;1.47;;
70102;SDS011;57470;50.034;15.256;2023-08-06T13:29:02;4.83;;;1.60;;
70102;SDS011;57470;50.034;15.256;2023-08-06T13:31:27;4.65;;;1.60;;
70102;SDS011;57470;50.034;15.256;2023-08-06T13:33:54;4.57;;;1.37;;
70102;SDS011;57470;50.034;15.256;2023-08-06T13:36:20;4.20;;;1.25;;
70102;SDS011;57470;50.034;15.256;2023-08-06T13:38:47;4.22;;;1.30;;
70102;SDS011;57470;50.034;15.256;2023-08-06T13:41:13;4.43;;;1.33;;
70102;SDS011;57470;50.034;15.256;2023-08-06T13:43:38;4.07;;;1.40;;
70102;SDS011;57470;50.034;15.256;2023-08-06T13:46:04;4.80;;;1.83;;
70102;SDS011;57470;50.034;15.256;2023-08-06T13:48:29;4.50;;;1.40;;
70102;SDS011;57470;50.034;15.256;2023-08-06T13:50:55;4.20;;;1.40;;
70102;SDS011;57470;50.034;15.256;2023-08-06T13:53:20;4.20;;;1.37;;
70102;SDS011;57470;50.034;15.256;2023-08-06T13:55:46;4.40;;;1.17;;
70102;SDS011;57470;50.034;15.256;2023-08-06T13:58:11;3.87;;;1.40;;
70102;SDS011;57470;50.034;15.256;2023-08-06T14:00:36;4.23;;;1.60;;
70102;SDS011;57470;50.034;15.256;2023-08-06T14:03:02;4.70;;;1.50;;
70102;SDS011;57470;50.034;15.256;2023-08-06T14:05:28;3.77;;;1.03;;
70102;SDS011;57470;50.034;15.256;2023-08-06T14:07:53;4.77;;;1.67;;
70102;SDS011;57470;50.034;15.256;2023-08-06T14:10:18;4.18;;;1.58;;
70102;SDS011;57470;50.034;15.256;2023-08-06T14:12:44;3.83;;;1.20;;
70102;SDS011;57470;50.034;15.256;2023-08-06T14:15:10;4.23;;;1.07;;
70102;SDS011;57470;50.034;15.256;2023-08-06T14:17:36;4.90;;;1.75;;
70102;SDS011;57470;50.034;15.256;2023-08-06T14:20:01;4.13;;;1.00;;
70102;SDS011;57470;50.034;15.256;2023-08-06T14:22:29;3.95;;;1.30;;
70102;SDS011;57470;50.034;15.256;2023-08-06T14:24:56;4.30;;;1.50;;
70102;SDS011;57470;50.034;15.256;2023-08-06T14:27:22;4.03;;;1.30;;
70102;SDS011;57470;50.034;15.256;2023-08-06T14:29:47;3.90;;;1.17;;
70102;SDS011;57470;50.034;15.256;2023-08-06T14:32:13;6.27;;;1.60;;
70102;SDS011;57470;50.034;15.256;2023-08-06T14:34:39;4.75;;;1.50;;
70102;SDS011;57470;50.034;15.256;2023-08-06T14:37:05;3.90;;;1.13;;
70102;SDS011;57470;50.034;15.256;2023-08-06T14:39:30;4.32;;;1.70;;